createdAt,value
2022-09-11T00:01:47.842Z,13.06
2022-09-11T00:04:16.093Z,13.03
2022-09-11T00:06:44.300Z,13.00
2022-09-11T00:09:12.782Z,12.94
2022-09-11T00:11:43.330Z,12.95
2022-09-11T00:14:14.020Z,12.94
2022-09-11T00:16:48.036Z,12.92
2022-09-11T00:19:20.101Z,12.95
2022-09-11T00:21:50.154Z,12.95
2022-09-11T00:24:18.389Z,12.91
2022-09-11T00:26:47.881Z,12.94
2022-09-11T00:29:16.555Z,12.90
2022-09-11T00:31:46.364Z,12.90
2022-09-11T00:34:14.925Z,12.87
2022-09-11T00:36:44.188Z,12.84
2022-09-11T00:39:14.250Z,12.84
2022-09-11T00:41:44.943Z,12.83
2022-09-11T00:45:01.507Z,12.82
2022-09-11T00:47:32.264Z,12.79
2022-09-11T00:50:13.331Z,12.79
2022-09-11T00:52:53.272Z,12.76
2022-09-11T00:55:26.791Z,12.74
2022-09-11T00:58:00.364Z,12.75
2022-09-11T01:00:28.670Z,12.79
2022-09-11T01:02:59.797Z,12.69
2022-09-11T01:05:34.613Z,12.77
2022-09-11T01:08:03.903Z,12.75
2022-09-11T01:10:48.274Z,12.78
2022-09-11T01:13:32.022Z,12.84
2022-09-11T01:16:13.217Z,12.77
2022-09-11T01:18:54.496Z,12.74
2022-09-11T01:21:53.353Z,12.77
2022-09-11T01:24:54.243Z,12.73
2022-09-11T01:27:43.158Z,12.71
2022-09-11T01:30:15.802Z,12.72
2022-09-11T01:33:12.489Z,12.68
2022-09-11T01:35:54.083Z,12.69
2022-09-11T01:38:33.041Z,12.60
2022-09-11T01:41:10.054Z,12.61
2022-09-11T01:43:45.240Z,12.63
2022-09-11T01:46:23.100Z,12.57
2022-09-11T01:49:02.700Z,12.52
2022-09-11T01:51:36.309Z,12.48
2022-09-11T01:54:12.174Z,12.51
2022-09-11T01:56:47.975Z,12.51
2022-09-11T01:59:28.774Z,12.40
2022-09-11T02:02:07.579Z,12.44
2022-09-11T02:04:42.292Z,12.37
2022-09-11T02:07:18.185Z,12.40
2022-09-11T02:09:56.921Z,12.38
2022-09-11T02:12:31.103Z,12.38
2022-09-11T02:15:01.611Z,12.32
2022-09-11T02:17:44.972Z,12.32
2022-09-11T02:20:13.728Z,12.24
2022-09-11T02:22:42.279Z,12.26
2022-09-11T02:25:11.617Z,12.27
2022-09-11T02:27:40.639Z,12.34
2022-09-11T02:30:14.408Z,12.37
2022-09-11T02:32:45.194Z,12.38
2022-09-11T02:35:16.298Z,12.47
2022-09-11T02:37:57.070Z,12.49
2022-09-11T02:40:44.114Z,12.50
2022-09-11T02:43:33.119Z,12.49
2022-09-11T02:46:30.981Z,12.50
2022-09-11T02:49:12.529Z,12.50
2022-09-11T02:51:52.963Z,12.48
2022-09-11T02:54:34.115Z,12.46
2022-09-11T02:57:12.630Z,12.47
2022-09-11T02:59:46.516Z,12.45
2022-09-11T03:02:19.303Z,12.45
2022-09-11T03:04:49.514Z,12.43
2022-09-11T03:07:18.232Z,12.38
2022-09-11T03:09:46.999Z,12.35
2022-09-11T03:12:21.156Z,12.27
2022-09-11T03:14:52.603Z,12.22
2022-09-11T03:17:25.354Z,12.17
2022-09-11T03:19:53.766Z,12.09
2022-09-11T03:22:22.418Z,12.11
2022-09-11T03:24:52.213Z,12.09
2022-09-11T03:27:23.784Z,12.09
2022-09-11T03:29:52.624Z,12.11
2022-09-11T03:32:22.865Z,12.07
2022-09-11T03:34:52.605Z,12.03
2022-09-11T03:37:20.861Z,12.07
2022-09-11T03:39:49.621Z,12.02
2022-09-11T03:42:17.949Z,12.05
2022-09-11T03:44:46.580Z,12.02
2022-09-11T03:47:15.163Z,12.04
2022-09-11T03:49:43.493Z,12.00
2022-09-11T03:52:14.371Z,12.01
2022-09-11T03:54:42.630Z,11.95
2022-09-11T03:57:11.217Z,11.89
2022-09-11T03:59:40.325Z,11.96
2022-09-11T04:02:08.700Z,11.92
2022-09-11T04:04:37.853Z,11.93
2022-09-11T04:07:06.562Z,11.92
2022-09-11T04:09:36.474Z,11.86
2022-09-11T04:12:05.363Z,11.94
2022-09-11T04:14:33.793Z,11.88
2022-09-11T04:17:04.557Z,11.92
2022-09-11T04:19:32.788Z,11.90
2022-09-11T04:22:01.191Z,11.89
2022-09-11T04:24:29.802Z,11.86
2022-09-11T04:27:02.632Z,11.85
2022-09-11T04:29:32.539Z,11.86
2022-09-11T04:32:01.404Z,11.87
2022-09-11T04:34:32.960Z,11.85
2022-09-11T04:37:01.620Z,11.89
2022-09-11T04:39:31.892Z,11.87
2022-09-11T04:42:01.997Z,11.86
2022-09-11T04:44:32.629Z,11.84
2022-09-11T04:47:01.370Z,11.87
2022-09-11T04:49:30.042Z,11.92
2022-09-11T04:52:02.806Z,11.83
2022-09-11T04:54:33.873Z,11.88
2022-09-11T04:57:03.810Z,11.90
2022-09-11T04:59:32.543Z,11.88
2022-09-11T05:02:06.115Z,11.87
2022-09-11T05:04:39.127Z,11.92
2022-09-11T05:07:08.012Z,11.89
2022-09-11T05:09:37.017Z,11.90
2022-09-11T05:12:08.053Z,11.92
2022-09-11T05:14:37.957Z,11.95
2022-09-11T05:17:07.163Z,11.89
2022-09-11T05:19:40.163Z,11.92
2022-09-11T05:22:09.241Z,11.95
2022-09-11T05:24:41.734Z,11.98
2022-09-11T05:27:11.688Z,12.03
2022-09-11T05:29:40.215Z,12.03
2022-09-11T05:32:13.188Z,11.99
2022-09-11T05:34:42.788Z,12.02
2022-09-11T05:37:14.905Z,12.02
2022-09-11T05:39:47.248Z,12.01
2022-09-11T05:42:22.129Z,12.01
2022-09-11T05:44:54.182Z,12.03
2022-09-11T05:47:23.659Z,12.03
2022-09-11T05:49:56.451Z,12.04
2022-09-11T05:52:25.589Z,12.12
2022-09-11T05:54:54.415Z,12.14
2022-09-11T05:57:24.127Z,12.21
2022-09-11T05:59:52.462Z,12.19
2022-09-11T06:02:20.777Z,12.22
2022-09-11T06:04:53.505Z,12.21
2022-09-11T06:07:24.606Z,12.18
2022-09-11T06:09:53.532Z,12.18
2022-09-11T06:12:23.558Z,12.23
2022-09-11T06:14:52.297Z,12.27
2022-09-11T06:17:23.231Z,12.28
2022-09-11T06:19:52.173Z,12.32
2022-09-11T06:22:21.390Z,12.38
2022-09-11T06:24:51.703Z,12.41
2022-09-11T06:27:20.095Z,12.44
2022-09-11T06:29:52.365Z,12.49
2022-09-11T06:32:22.193Z,12.55
2022-09-11T06:34:50.551Z,12.61
2022-09-11T06:37:19.051Z,12.67
2022-09-11T06:39:48.653Z,12.69
2022-09-11T06:42:24.097Z,12.76
2022-09-11T06:44:54.303Z,12.78
2022-09-11T06:47:22.950Z,12.82
2022-09-11T06:49:53.327Z,12.87
2022-09-11T06:52:35.895Z,12.87
2022-09-11T06:55:17.732Z,12.94
2022-09-11T06:57:54.407Z,13.01
2022-09-11T07:00:28.661Z,13.13
2022-09-11T07:02:57.655Z,13.25
2022-09-11T07:05:27.424Z,13.27
2022-09-11T07:07:57.615Z,13.24
2022-09-11T07:10:30.335Z,13.17
2022-09-11T07:13:01.241Z,13.18
2022-09-11T07:15:32.148Z,13.15
2022-09-11T07:18:02.184Z,13.17
2022-09-11T07:20:31.730Z,13.23
2022-09-11T07:23:00.925Z,13.19
2022-09-11T07:25:31.984Z,13.25
2022-09-11T07:28:00.323Z,13.20
2022-09-11T07:30:30.298Z,13.15
2022-09-11T07:32:58.645Z,13.10
2022-09-11T07:35:26.979Z,13.07
2022-09-11T07:37:57.063Z,13.02
2022-09-11T07:40:27.787Z,13.00
2022-09-11T07:42:59.367Z,13.08
2022-09-11T07:45:30.257Z,13.15
2022-09-11T07:48:02.137Z,13.26
2022-09-11T07:50:31.916Z,13.24
2022-09-11T07:53:01.388Z,13.15
2022-09-11T07:55:30.294Z,13.18
2022-09-11T07:57:58.998Z,13.12
2022-09-11T08:00:27.491Z,13.06
2022-09-11T08:03:05.937Z,13.05
2022-09-11T08:05:37.275Z,13.09
2022-09-11T08:08:06.279Z,13.16
2022-09-11T08:10:40.839Z,13.19
2022-09-11T08:13:09.720Z,13.15
2022-09-11T08:15:38.909Z,13.26
2022-09-11T08:18:10.292Z,13.54
2022-09-11T08:20:38.591Z,13.80
2022-09-11T08:23:06.946Z,13.85
2022-09-11T08:25:36.980Z,13.93
2022-09-11T08:28:06.904Z,14.06
2022-09-11T08:30:38.535Z,14.01
2022-09-11T08:33:09.676Z,14.07
2022-09-11T08:35:38.514Z,14.09
2022-09-11T08:38:06.831Z,14.25
2022-09-11T08:40:39.959Z,14.49
2022-09-11T08:43:22.869Z,14.79
2022-09-11T08:45:57.022Z,14.84
2022-09-11T08:48:39.044Z,15.00
2022-09-11T08:51:14.128Z,14.96
2022-09-11T08:53:43.132Z,15.06
2022-09-11T08:56:22.379Z,15.28
2022-09-11T08:59:16.229Z,15.41
2022-09-11T09:01:57.615Z,15.48
2022-09-11T09:05:05.422Z,15.36
2022-09-11T09:07:54.677Z,15.19
2022-09-11T09:10:45.692Z,15.04
2022-09-11T09:13:34.651Z,14.98
2022-09-11T09:16:18.142Z,14.93
2022-09-11T09:18:51.436Z,14.92
2022-09-11T09:21:31.345Z,14.96
2022-09-11T09:24:06.684Z,15.05
2022-09-11T09:26:40.788Z,15.15
2022-09-11T09:29:20.961Z,15.18
2022-09-11T09:31:56.211Z,15.39
2022-09-11T09:34:31.323Z,15.54
2022-09-11T09:37:08.621Z,15.77
2022-09-11T09:39:37.976Z,15.83
2022-09-11T09:42:34.740Z,15.91
2022-09-11T09:45:37.463Z,16.03
2022-09-11T09:48:07.686Z,15.84
2022-09-11T09:50:40.593Z,15.78
2022-09-11T09:53:27.890Z,15.78
2022-09-11T09:55:57.243Z,15.77
2022-09-11T09:58:33.221Z,15.68
2022-09-11T10:01:01.730Z,15.67
2022-09-11T10:03:31.143Z,15.53
2022-09-11T10:06:00.285Z,15.56
2022-09-11T10:08:35.516Z,15.70
2022-09-11T10:11:06.190Z,15.84
2022-09-11T10:13:37.847Z,15.97
2022-09-11T10:16:21.198Z,15.93
2022-09-11T10:18:49.755Z,15.96
2022-09-11T10:21:26.156Z,15.88
2022-09-11T10:23:58.585Z,15.67
2022-09-11T10:26:35.102Z,15.84
2022-09-11T10:29:14.028Z,16.09
2022-09-11T10:31:50.462Z,16.38
2022-09-11T10:34:22.359Z,16.60
2022-09-11T10:36:55.741Z,16.67
2022-09-11T10:39:28.848Z,16.74
2022-09-11T10:42:05.474Z,16.88
2022-09-11T10:44:35.304Z,16.62
2022-09-11T10:47:17.428Z,16.60
2022-09-11T10:49:47.180Z,16.79
2022-09-11T10:52:22.302Z,16.81
2022-09-11T10:55:07.164Z,16.64
2022-09-11T10:57:46.021Z,16.43
2022-09-11T11:00:21.270Z,16.47
2022-09-11T11:02:53.360Z,16.75
2022-09-11T11:05:33.533Z,16.97
2022-09-11T11:08:46.248Z,17.09
2022-09-11T11:11:46.358Z,17.11
2022-09-11T11:14:44.429Z,17.26
2022-09-11T11:17:22.992Z,17.38
2022-09-11T11:20:22.710Z,17.21
2022-09-11T11:23:16.286Z,17.28
2022-09-11T11:25:55.087Z,17.46
2022-09-11T11:28:50.473Z,17.77
2022-09-11T11:31:42.447Z,17.96
2022-09-11T11:34:37.382Z,18.46
2022-09-11T11:37:13.371Z,18.43
2022-09-11T11:39:57.810Z,18.21
2022-09-11T11:42:31.415Z,18.21
2022-09-11T11:45:09.003Z,17.92
2022-09-11T11:47:42.495Z,17.63
2022-09-11T11:50:26.491Z,17.51
2022-09-11T11:53:08.432Z,17.48
2022-09-11T11:55:51.411Z,17.57
2022-09-11T11:58:36.886Z,17.77
2022-09-11T12:01:15.251Z,17.88
2022-09-11T12:03:52.147Z,18.16
2022-09-11T12:06:20.446Z,18.57
2022-09-11T12:08:49.833Z,18.69
2022-09-11T12:11:28.281Z,19.06
2022-09-11T12:13:57.422Z,19.62
2022-09-11T12:16:32.109Z,19.86
2022-09-11T12:19:15.288Z,19.77
2022-09-11T12:22:12.832Z,20.07
2022-09-11T12:24:58.930Z,20.36
2022-09-11T12:27:55.737Z,20.25
2022-09-11T12:30:30.846Z,20.32
2022-09-11T12:33:02.453Z,20.35
2022-09-11T12:35:42.151Z,20.61
2022-09-11T12:38:26.273Z,20.27
2022-09-11T12:40:59.802Z,20.45
2022-09-11T12:43:45.947Z,20.52
2022-09-11T12:47:16.620Z,20.04
2022-09-11T12:49:57.219Z,21.50
2022-09-11T12:52:40.272Z,22.41
2022-09-11T12:55:31.249Z,23.45
2022-09-11T12:58:03.598Z,21.66
2022-09-11T13:00:39.814Z,20.13
2022-09-11T13:03:19.401Z,18.65
2022-09-11T13:05:59.995Z,18.36
2022-09-11T13:08:33.705Z,18.05
2022-09-11T13:11:42.686Z,17.97
2022-09-11T13:14:48.996Z,18.62
2022-09-11T13:17:30.209Z,18.60
2022-09-11T13:20:22.580Z,18.40
2022-09-11T13:22:58.231Z,18.23
2022-09-11T13:25:27.950Z,18.49
2022-09-11T13:28:01.136Z,18.73
2022-09-11T13:30:29.852Z,18.68
2022-09-11T13:33:07.899Z,18.76
2022-09-11T13:35:40.195Z,19.15
2022-09-11T13:38:18.531Z,19.56
2022-09-11T13:40:54.467Z,19.49
2022-09-11T13:43:29.721Z,19.21
2022-09-11T13:46:24.856Z,19.50
2022-09-11T13:49:00.271Z,19.70
2022-09-11T13:51:31.383Z,19.64
2022-09-11T13:54:12.336Z,19.31
2022-09-11T13:56:48.142Z,19.03
2022-09-11T13:59:40.220Z,18.85
2022-09-11T14:02:26.324Z,18.96
2022-09-11T14:05:05.012Z,18.99
2022-09-11T14:07:42.548Z,18.98
2022-09-11T14:10:25.484Z,18.93
2022-09-11T14:13:05.747Z,18.76
2022-09-11T14:15:42.345Z,18.79
2022-09-11T14:18:28.136Z,18.88
2022-09-11T14:20:59.510Z,18.95
2022-09-11T14:23:31.283Z,18.96
2022-09-11T14:26:17.782Z,18.97
2022-09-11T14:29:03.545Z,19.05
2022-09-11T14:31:35.408Z,19.08
2022-09-11T14:34:21.988Z,19.03
2022-09-11T14:36:58.451Z,19.20
2022-09-11T14:39:37.448Z,19.22
2022-09-11T14:42:09.889Z,19.21
2022-09-11T14:44:41.272Z,19.21
2022-09-11T14:47:17.187Z,19.16
2022-09-11T14:49:46.160Z,19.21
2022-09-11T14:52:16.862Z,19.24
2022-09-11T14:54:45.532Z,18.95
2022-09-11T14:57:20.813Z,19.14
2022-09-11T14:59:49.894Z,19.32
2022-09-11T15:02:21.503Z,19.77
2022-09-11T15:04:50.399Z,19.85
2022-09-11T15:07:19.821Z,19.46
2022-09-11T15:09:48.180Z,19.13
2022-09-11T15:12:19.215Z,18.94
2022-09-11T15:14:58.038Z,18.82
2022-09-11T15:17:31.473Z,18.56
2022-09-11T15:20:00.730Z,18.49
2022-09-11T15:22:31.270Z,18.36
2022-09-11T15:24:59.981Z,18.41
2022-09-11T15:27:29.601Z,18.39
2022-09-11T15:29:58.490Z,18.55
2022-09-11T15:32:26.732Z,18.90
2022-09-11T15:34:55.191Z,19.07
2022-09-11T15:37:25.527Z,18.81
2022-09-11T15:39:53.935Z,18.66
2022-09-11T15:42:22.283Z,18.66
2022-09-11T15:44:51.946Z,18.52
2022-09-11T15:47:20.178Z,18.56
2022-09-11T15:49:48.685Z,18.59
2022-09-11T15:52:17.198Z,18.47
2022-09-11T15:54:47.646Z,18.35
2022-09-11T15:57:16.666Z,18.18
2022-09-11T15:59:45.272Z,18.03
2022-09-11T16:02:14.925Z,17.94
2022-09-11T16:04:44.131Z,17.86
2022-09-11T16:07:12.523Z,17.85
2022-09-11T16:09:40.855Z,17.80
2022-09-11T16:12:09.150Z,17.77
2022-09-11T16:14:38.973Z,17.74
2022-09-11T16:17:09.403Z,17.69
2022-09-11T16:19:39.672Z,17.69
2022-09-11T16:22:08.826Z,17.64
2022-09-11T16:24:38.100Z,17.52
2022-09-11T16:27:08.939Z,17.52
2022-09-11T16:30:15.480Z,17.47
2022-09-11T16:32:29.642Z,17.48
2022-09-11T16:34:59.920Z,17.41
2022-09-11T16:37:31.035Z,17.36
2022-09-11T16:39:59.414Z,17.20
2022-09-11T16:42:27.686Z,17.17
2022-09-11T16:44:56.353Z,17.22
2022-09-11T16:47:24.954Z,17.16
2022-09-11T16:50:09.186Z,17.22
2022-09-11T16:52:39.634Z,17.24
2022-09-11T16:55:10.712Z,17.17
2022-09-11T16:57:39.483Z,17.04
2022-09-11T17:00:10.204Z,16.82
2022-09-11T17:02:38.749Z,16.61
2022-09-11T17:05:08.426Z,16.49
2022-09-11T17:07:38.674Z,16.41
2022-09-11T17:10:08.591Z,16.29
2022-09-11T17:12:37.261Z,16.16
2022-09-11T17:15:07.177Z,16.07
2022-09-11T17:17:38.506Z,15.93
2022-09-11T17:20:09.856Z,15.81
2022-09-11T17:22:41.260Z,15.68
2022-09-11T17:25:11.453Z,15.57
2022-09-11T17:27:41.916Z,15.49
2022-09-11T17:30:12.693Z,15.38
2022-09-11T17:32:42.362Z,15.31
2022-09-11T17:35:13.116Z,15.21
2022-09-11T17:37:43.112Z,15.16
2022-09-11T17:40:12.526Z,15.07
2022-09-11T17:42:41.923Z,14.94
2022-09-11T17:45:12.474Z,14.82
2022-09-11T17:47:42.635Z,14.83
2022-09-11T17:50:12.478Z,14.79
2022-09-11T17:52:42.204Z,14.75
2022-09-11T17:55:11.222Z,14.67
2022-09-11T17:57:44.268Z,14.66
2022-09-11T18:00:14.933Z,14.69
2022-09-11T18:02:46.475Z,14.74
2022-09-11T18:05:14.777Z,14.64
2022-09-11T18:07:44.517Z,14.54
2022-09-11T18:10:12.895Z,14.45
2022-09-11T18:12:41.241Z,14.39
2022-09-11T18:15:11.184Z,14.36
2022-09-11T18:17:39.662Z,14.33
2022-09-11T18:20:09.733Z,14.36
2022-09-11T18:22:39.869Z,14.33
2022-09-11T18:25:10.503Z,14.32
2022-09-11T18:27:40.173Z,14.25
2022-09-11T18:30:10.586Z,14.16
2022-09-11T18:32:40.008Z,14.15
2022-09-11T18:35:09.912Z,14.09
2022-09-11T18:37:38.805Z,14.08
2022-09-11T18:40:09.941Z,14.08
2022-09-11T18:42:38.733Z,14.06
2022-09-11T18:45:09.507Z,13.97
2022-09-11T18:47:38.156Z,13.96
2022-09-11T18:50:07.447Z,13.90
2022-09-11T18:52:36.086Z,13.84
2022-09-11T18:55:04.662Z,13.80
2022-09-11T18:57:40.088Z,13.80
2022-09-11T19:00:14.113Z,13.80
2022-09-11T19:02:42.737Z,13.77
2022-09-11T19:05:11.397Z,13.67
2022-09-11T19:07:40.012Z,13.55
2022-09-11T19:10:09.368Z,13.49
2022-09-11T19:12:39.759Z,13.41
2022-09-11T19:15:10.083Z,13.33
2022-09-11T19:17:39.174Z,13.29
2022-09-11T19:20:11.147Z,13.17
2022-09-11T19:22:39.976Z,13.03
2022-09-11T19:25:10.077Z,12.90
2022-09-11T19:27:40.100Z,12.83
2022-09-11T19:30:09.476Z,12.81
2022-09-11T19:32:37.776Z,12.79
2022-09-11T19:35:07.158Z,12.68
2022-09-11T19:37:35.824Z,12.69
2022-09-11T19:40:06.995Z,12.77
2022-09-11T19:42:35.497Z,12.81
2022-09-11T19:45:06.223Z,12.80
2022-09-11T19:47:34.603Z,12.75
2022-09-11T19:50:02.852Z,12.70
2022-09-11T19:52:33.202Z,12.63
2022-09-11T19:55:01.681Z,12.57
2022-09-11T19:57:31.040Z,12.49
2022-09-11T20:00:00.399Z,12.42
2022-09-11T20:02:30.272Z,12.36
2022-09-11T20:05:00.302Z,12.21
2022-09-11T20:07:29.436Z,12.20
2022-09-11T20:09:58.090Z,12.22
2022-09-11T20:12:26.830Z,12.24
2022-09-11T20:14:55.590Z,12.23
2022-09-11T20:17:24.239Z,12.12
2022-09-11T20:19:54.093Z,12.06
2022-09-11T20:22:22.531Z,12.12
2022-09-11T20:24:50.844Z,12.19
2022-09-11T20:27:19.694Z,12.15
2022-09-11T20:29:48.027Z,12.10
2022-09-11T20:32:18.148Z,12.10
2022-09-11T20:34:46.469Z,12.08
2022-09-11T20:37:16.230Z,12.04
2022-09-11T20:39:44.885Z,12.01
2022-09-11T20:42:13.908Z,12.03
2022-09-11T20:44:42.399Z,11.90
2022-09-11T20:47:13.385Z,11.76
2022-09-11T20:49:42.015Z,11.73
2022-09-11T20:52:10.732Z,11.72
2022-09-11T20:54:41.016Z,11.71
2022-09-11T20:57:10.203Z,11.78
2022-09-11T20:59:38.619Z,11.76
2022-09-11T21:02:07.054Z,11.73
2022-09-11T21:04:35.495Z,11.67
2022-09-11T21:07:03.928Z,11.67
2022-09-11T21:09:32.436Z,11.62
2022-09-11T21:12:02.291Z,11.54
2022-09-11T21:14:31.074Z,11.50
2022-09-11T21:16:59.409Z,11.51
2022-09-11T21:19:28.024Z,11.47
2022-09-11T21:21:56.435Z,11.39
2022-09-11T21:24:25.259Z,11.34
2022-09-11T21:26:54.001Z,11.27
2022-09-11T21:29:24.216Z,11.24
2022-09-11T21:31:53.150Z,11.21
2022-09-11T21:34:21.781Z,11.16
2022-09-11T21:36:50.256Z,11.07
2022-09-11T21:39:18.566Z,11.05
2022-09-11T21:41:46.949Z,11.05
2022-09-11T21:44:15.681Z,11.03
2022-09-11T21:46:45.467Z,10.98
2022-09-11T21:49:14.195Z,10.91
2022-09-11T21:51:43.191Z,10.86
2022-09-11T21:54:11.707Z,10.81
2022-09-11T21:56:40.716Z,10.78
2022-09-11T21:59:09.307Z,10.72
2022-09-11T22:01:37.839Z,10.76
2022-09-11T22:04:07.483Z,10.75
2022-09-11T22:06:36.208Z,10.83
2022-09-11T22:09:04.715Z,10.86
2022-09-11T22:11:33.188Z,10.78
2022-09-11T22:14:01.750Z,10.82
2022-09-11T22:16:30.389Z,10.74
2022-09-11T22:18:58.720Z,10.71
2022-09-11T22:21:28.456Z,10.67
2022-09-11T22:23:57.204Z,10.60
2022-09-11T22:26:25.540Z,10.53
2022-09-11T22:28:54.023Z,10.44
2022-09-11T22:31:24.859Z,10.44
2022-09-11T22:33:55.117Z,10.42
2022-09-11T22:36:26.497Z,10.43
2022-09-11T22:38:56.610Z,10.51
2022-09-11T22:41:25.494Z,10.56
2022-09-11T22:43:54.257Z,10.61
2022-09-11T22:46:23.850Z,10.64
2022-09-11T22:48:52.474Z,10.57
2022-09-11T22:51:20.773Z,10.52
2022-09-11T22:53:49.369Z,10.48
2022-09-11T22:56:19.019Z,10.41
2022-09-11T22:58:47.517Z,10.40
2022-09-11T23:01:21.837Z,10.39
2022-09-11T23:03:51.781Z,10.38
2022-09-11T23:06:38.684Z,10.31
2022-09-11T23:09:08.380Z,10.21
2022-09-11T23:11:37.982Z,10.19
2022-09-11T23:14:10.482Z,10.19
2022-09-11T23:16:42.541Z,10.16
2022-09-11T23:19:15.103Z,10.19
2022-09-11T23:21:44.262Z,10.33
2022-09-11T23:24:15.433Z,10.40
2022-09-11T23:26:45.529Z,10.38
2022-09-11T23:29:14.073Z,10.35
2022-09-11T23:31:44.260Z,10.37
2022-09-11T23:34:17.672Z,10.39
2022-09-11T23:36:46.037Z,10.39
2022-09-11T23:39:14.684Z,10.34
2022-09-11T23:41:44.298Z,10.28
2022-09-11T23:44:12.832Z,10.27
2022-09-11T23:46:42.210Z,10.25
2022-09-11T23:49:12.158Z,10.28
2022-09-11T23:51:41.632Z,10.33
2022-09-11T23:54:10.254Z,10.34
2022-09-11T23:56:38.504Z,10.42
2022-09-11T23:59:08.136Z,10.37
